Time;durP1;ratioP1;P1;durP2;ratioP2;P2;SDS_P1;SDS_P2;PMS_P1;PMS_P2;Temp;Humidity;BMP_temperature;BMP_pressure;BME280_temperature;BME280_humidity;BME280_pressure;Samples;Min_cycle;Max_cycle;Signal;HPM_P1;HPM_P2
2022/08/25 00:01:21;;;;;;;1999.90;999.90;;;;;;;17.92;100.00;94121.38;4922048;29;20284;-62
2022/08/25 00:03:47;;;;;;;1999.90;999.90;;;;;;;17.87;100.00;94039.19;4922231;29;20216;-63
2022/08/25 00:06:14;;;;;;;1999.90;999.90;;;;;;;17.87;100.00;93991.47;4922136;29;20202;-62
2022/08/25 00:08:40;;;;;;;1999.90;999.90;;;;;;;17.87;100.00;93950.03;4937979;29;20216;-62
2022/08/25 00:11:10;;;;;;;1999.90;999.90;;;;;;;17.84;100.00;93743.84;4922134;29;20229;-63
2022/08/25 00:13:37;;;;;;;1999.90;999.90;;;;;;;17.81;100.00;92852.88;4922762;29;20266;-63
2022/08/25 00:16:03;;;;;;;1999.90;999.90;;;;;;;17.79;100.00;92767.03;4922434;29;20198;-62
2022/08/25 00:18:28;;;;;;;1999.90;999.90;;;;;;;17.79;100.00;92391.53;4922527;29;20209;-62
2022/08/25 00:20:54;;;;;;;1999.90;999.90;;;;;;;17.74;100.00;92381.31;4922101;29;20277;-63
2022/08/25 00:23:19;;;;;;;1999.90;999.90;;;;;;;17.70;100.00;92342.22;4921822;29;20227;-63
2022/08/25 00:25:45;;;;;;;1999.90;999.90;;;;;;;17.65;100.00;92313.44;4922236;29;20212;-63
2022/08/25 00:28:10;;;;;;;1999.90;999.90;;;;;;;17.63;100.00;92168.94;4937875;29;20198;-63
2022/08/25 00:30:37;;;;;;;1999.90;999.90;;;;;;;17.63;100.00;92131.03;4921894;29;20245;-63
2022/08/25 00:33:03;;;;;;;1999.90;999.90;;;;;;;17.50;100.00;92081.34;4937641;29;20229;-62
2022/08/25 00:35:28;;;;;;;1999.90;999.90;;;;;;;17.56;100.00;92034.34;4921991;29;20217;-63
2022/08/25 00:37:54;;;;;;;1999.90;999.90;;;;;;;17.51;100.00;91982.75;4921950;29;20233;-63
2022/08/25 00:40:22;;;;;;;1999.90;999.90;;;;;;;17.50;100.00;91942.63;4921715;29;20205;-62
2022/08/25 00:42:47;;;;;;;1999.90;999.90;;;;;;;17.52;100.00;91920.78;4921707;29;20255;-63
2022/08/25 00:45:13;;;;;;;1999.90;999.90;;;;;;;17.51;100.00;91698.53;4922097;29;20210;-62
2022/08/25 00:47:40;;;;;;;1999.90;999.90;;;;;;;17.51;100.00;90686.09;4921332;29;20200;-62
2022/08/25 00:50:07;;;;;;;1999.90;999.90;;;;;;;17.50;100.00;90604.63;4921721;29;20210;-62
2022/08/25 00:52:40;;;;;;;1999.90;999.90;;;;;;;17.50;100.00;90563.25;4921584;29;20220;-61
2022/08/25 00:55:14;;;;;;;1999.90;999.90;;;;;;;17.51;100.00;90556.44;4937615;29;20210;-62
2022/08/25 00:57:44;;;;;;;1999.90;999.90;;;;;;;17.51;100.00;90531.63;4937145;29;20321;-62
2022/08/25 01:00:20;;;;;;;1999.90;999.90;;;;;;;17.52;100.00;90505.53;4937277;29;20225;-61
2022/08/25 01:02:46;;;;;;;1999.90;999.90;;;;;;;17.50;100.00;90480.53;4921269;29;20217;-62
2022/08/25 01:05:12;;;;;;;1999.90;999.90;;;;;;;17.46;100.00;90486.44;4921531;29;20213;-63
2022/08/25 01:07:39;;;;;;;1999.90;999.90;;;;;;;17.48;100.00;90452.78;4921232;29;20196;-63
2022/08/25 01:10:07;;;;;;;1999.90;999.90;;;;;;;17.46;100.00;90397.44;4921575;29;20206;-63
2022/08/25 01:12:35;;;;;;;1999.90;999.90;;;;;;;17.39;100.00;90351.34;4921600;29;20214;-63
2022/08/25 01:15:03;;;;;;;1999.90;999.90;;;;;;;17.34;100.00;90270.34;4921350;29;20209;-62
2022/08/25 01:17:53;;;;;;;1999.90;999.90;;;;;;;17.35;100.00;90276.59;4920739;29;20217;-62
2022/08/25 01:20:20;;;;;;;1999.90;999.90;;;;;;;17.32;100.00;90263.94;4920924;29;20284;-62
2022/08/25 01:22:48;;;;;;;1999.90;999.90;;;;;;;17.31;100.00;90223.88;4921280;29;20242;-62
2022/08/25 01:25:32;;;;;;;1999.90;999.90;;;;;;;17.29;100.00;90172.06;4937452;29;20205;-63
2022/08/25 01:27:57;;;;;;;1999.90;999.90;;;;;;;17.30;100.00;90095.63;4937249;29;20182;-62
2022/08/25 01:30:23;;;;;;;1999.90;999.90;;;;;;;17.29;100.00;90102.41;4937057;29;20200;-63
2022/08/25 01:32:48;;;;;;;1999.90;999.90;;;;;;;17.28;100.00;90056.84;4920648;29;20205;-63
2022/08/25 01:35:14;;;;;;;1999.90;999.90;;;;;;;17.27;100.00;90031.34;4920982;29;20202;-63
2022/08/25 01:37:40;;;;;;;1999.90;999.90;;;;;;;17.25;100.00;90002.88;4920692;29;20209;-63
2022/08/25 01:40:06;;;;;;;1999.90;999.90;;;;;;;17.24;100.00;89974.59;4920576;29;20233;-63
2022/08/25 01:42:53;;;;;;;1999.90;999.90;;;;;;;17.22;100.00;89968.22;4920862;29;20209;-63
2022/08/25 01:45:20;;;;;;;1999.90;999.90;;;;;;;17.20;100.00;89973.56;4920761;29;20213;-63
2022/08/25 01:47:45;;;;;;;1999.90;999.90;;;;;;;17.19;100.00;89969.34;4920776;29;20186;-63
2022/08/25 01:50:11;;;;;;;1999.90;999.90;;;;;;;17.13;100.00;89979.91;4921317;29;20221;-63
2022/08/25 01:52:55;;;;;;;1999.90;999.90;;;;;;;17.10;100.00;89967.28;4921295;29;20194;-63
2022/08/25 01:55:21;;;;;;;1999.90;999.90;;;;;;;17.07;100.00;89977.44;4936927;29;20233;-63
2022/08/25 01:57:47;;;;;;;1999.90;999.90;;;;;;;17.03;100.00;89987.44;4904763;29;20229;-63
2022/08/25 02:00:14;;;;;;;1999.90;999.90;;;;;;;17.00;100.00;89988.59;4920520;29;20213;-63
2022/08/25 02:02:41;;;;;;;1999.90;999.90;;;;;;;16.96;100.00;89991.03;4920448;29;20242;-62
2022/08/25 02:05:07;;;;;;;1999.90;999.90;;;;;;;16.93;100.00;90014.25;4920529;29;20217;-63
2022/08/25 02:07:34;;;;;;;1999.90;999.90;;;;;;;16.90;100.00;90005.09;4936264;29;20208;-65
2022/08/25 02:10:03;;;;;;;1999.90;999.90;;;;;;;16.90;100.00;89958.25;4936045;29;20257;-62
2022/08/25 02:12:30;;;;;;;1999.90;999.90;;;;;;;16.90;100.00;91542.78;4920708;29;20239;-63
2022/08/25 02:14:56;;;;;;;1999.90;999.90;;;;;;;16.86;100.00;91448.66;4920540;29;20202;-63
2022/08/25 02:17:22;;;;;;;1999.90;999.90;;;;;;;16.82;100.00;91367.63;4920482;29;20285;-62
2022/08/25 02:19:47;;;;;;;1999.90;999.90;;;;;;;16.80;100.00;91304.78;4936574;29;20297;-62
2022/08/25 02:22:12;;;;;;;1999.90;999.90;;;;;;;16.74;100.00;91256.59;4920081;29;20225;-63
2022/08/25 02:24:38;;;;;;;1999.90;999.90;;;;;;;16.74;100.00;91218.78;4920778;29;20224;-63
2022/08/25 02:27:04;;;;;;;1999.90;999.90;;;;;;;16.76;100.00;91154.88;4920345;29;20229;-63
2022/08/25 02:29:29;;;;;;;1999.90;999.90;;;;;;;16.73;100.00;91078.81;4920251;29;20202;-63
2022/08/25 02:31:55;;;;;;;1999.90;999.90;;;;;;;16.72;100.00;91019.47;4920148;29;20209;-62
2022/08/25 02:34:21;;;;;;;1999.90;999.90;;;;;;;16.69;100.00;90966.22;4920252;29;20300;-62
2022/08/25 02:36:46;;;;;;;1999.90;999.90;;;;;;;16.69;100.00;90896.59;4920010;29;20257;-62
2022/08/25 02:39:12;;;;;;;1999.90;999.90;;;;;;;16.65;100.00;90830.13;4920250;29;20206;-62
2022/08/25 02:41:37;;;;;;;1999.90;999.90;;;;;;;16.69;100.00;90742.34;4920014;29;20288;-63
2022/08/25 02:44:04;;;;;;;1999.90;999.90;;;;;;;16.66;100.00;90693.84;4919857;29;20198;-63
2022/08/25 02:46:30;;;;;;;1999.90;999.90;;;;;;;16.63;100.00;90646.13;4919971;29;20217;-62
2022/08/25 02:48:57;;;;;;;1999.90;999.90;;;;;;;16.59;100.00;90587.94;4920150;29;20197;-62
2022/08/25 02:51:24;;;;;;;1999.90;999.90;;;;;;;16.50;100.00;90494.19;4920118;29;20212;-62
2022/08/25 02:53:50;;;;;;;1999.90;999.90;;;;;;;16.46;100.00;90378.19;4919780;29;20209;-62
2022/08/25 02:56:17;;;;;;;1999.90;999.90;;;;;;;16.44;100.00;90269.34;4920126;29;20205;-62
2022/08/25 02:58:44;;;;;;;1999.90;999.90;;;;;;;16.43;100.00;90196.28;4920463;29;20213;-62
2022/08/25 03:01:10;;;;;;;1999.90;999.90;;;;;;;16.43;100.00;90138.47;4920004;29;20217;-61
2022/08/25 03:03:39;;;;;;;1999.90;999.90;;;;;;;16.43;100.00;90088.22;4919639;29;20232;-63
2022/08/25 03:06:06;;;;;;;1999.90;999.90;;;;;;;16.42;100.00;90070.94;4919784;29;20220;-62
2022/08/25 03:08:31;;;;;;;1999.90;999.90;;;;;;;16.42;100.00;90245.72;4919683;29;20204;-62
2022/08/25 03:10:57;;;;;;;1999.90;999.90;;;;;;;16.37;100.00;90250.84;4922514;29;20197;-62
2022/08/25 03:13:22;;;;;;;1999.90;999.90;;;;;;;16.40;100.00;90222.19;4923126;29;20301;-63
2022/08/25 03:15:48;;;;;;;1999.90;999.90;;;;;;;16.39;100.00;90195.94;4922886;29;20213;-63
2022/08/25 03:18:14;;;;;;;1999.90;999.90;;;;;;;16.36;100.00;90186.06;4923166;29;20186;-62
2022/08/25 03:20:40;;;;;;;1999.90;999.90;;;;;;;16.36;100.00;90182.59;4923279;29;20228;-62
2022/08/25 03:23:06;;;;;;;1999.90;999.90;;;;;;;16.33;100.00;90162.41;4922924;29;20218;-63
2022/08/25 03:28:17;;;;;;;1999.90;999.90;;;;;;;16.32;100.00;90116.94;4939974;29;20269;-62
2022/08/25 03:30:43;;;;;;;1999.90;999.90;;;;;;;16.31;100.00;90104.47;4922974;29;20205;-63
2022/08/25 03:33:09;;;;;;;1999.90;999.90;;;;;;;16.30;100.00;90086.50;4923125;29;20296;-63
2022/08/25 03:35:35;;;;;;;1999.90;999.90;;;;;;;16.28;100.00;90061.56;4923103;29;20206;-63
2022/08/25 03:38:01;;;;;;;1999.90;999.90;;;;;;;16.25;100.00;90043.44;4922547;29;20237;-62
2022/08/25 03:40:27;;;;;;;1999.90;999.90;;;;;;;16.25;100.00;90026.91;4938749;29;20206;-62
2022/08/25 03:42:55;;;;;;;1999.90;999.90;;;;;;;16.19;100.00;90042.97;4922685;29;20281;-63
2022/08/25 03:45:22;;;;;;;1999.90;999.90;;;;;;;16.16;100.00;90038.59;4923136;29;20292;-62
2022/08/25 03:47:49;;;;;;;1999.90;999.90;;;;;;;16.15;100.00;90020.63;4938379;29;20201;-62
2022/08/25 03:50:15;;;;;;;1999.90;999.90;;;;;;;16.09;100.00;90006.41;4922447;29;20202;-62
2022/08/25 03:52:41;;;;;;;1999.90;999.90;;;;;;;16.08;100.00;89974.69;4922263;29;20201;-63
2022/08/25 03:55:09;;;;;;;1999.90;999.90;;;;;;;16.05;100.00;89953.81;4922587;29;20297;-63
2022/08/25 03:57:35;;;;;;;1999.90;999.90;;;;;;;16.02;100.00;89923.94;4922238;29;20225;-62
2022/08/25 04:00:01;;;;;;;1999.90;999.90;;;;;;;16.02;100.00;89888.91;4922241;29;20253;-63
2022/08/25 04:02:26;;;;;;;1999.90;999.90;;;;;;;16.03;100.00;89860.09;4921858;29;20644;-62
2022/08/25 04:04:52;;;;;;;1999.90;999.90;;;;;;;16.04;100.00;89834.06;4922439;29;20285;-62
2022/08/25 04:07:17;;;;;;;1999.90;999.90;;;;;;;16.05;100.00;89815.50;4922661;29;20229;-64
2022/08/25 04:09:43;;;;;;;1999.90;999.90;;;;;;;16.05;100.00;89796.97;4921769;29;20213;-66
2022/08/25 04:12:09;;;;;;;1999.90;999.90;;;;;;;16.03;100.00;89809.88;4922270;29;20204;-62
2022/08/25 04:14:35;;;;;;;1999.90;999.90;;;;;;;16.02;100.00;89778.88;4922033;29;20201;-63
2022/08/25 04:17:01;;;;;;;1999.90;999.90;;;;;;;16.03;100.00;89749.34;4922439;29;20194;-63
2022/08/25 04:19:26;;;;;;;1999.90;999.90;;;;;;;16.03;100.00;89708.78;4922471;29;20265;-63
2022/08/25 04:21:52;;;;;;;1999.90;999.90;;;;;;;16.00;100.00;89682.41;4936813;29;20210;-64
2022/08/25 04:24:18;;;;;;;1999.90;999.90;;;;;;;15.98;100.00;89649.28;4921613;29;20268;-63
2022/08/25 04:26:46;;;;;;;1999.90;999.90;;;;;;;15.95;100.00;89521.13;4921718;29;20219;-63
2022/08/25 04:29:13;;;;;;;1999.90;999.90;;;;;;;15.93;100.00;89471.50;4921499;29;20301;-63
2022/08/25 04:31:41;;;;;;;1999.90;999.90;;;;;;;15.95;100.00;89419.38;4922369;29;20296;-62
2022/08/25 04:34:07;;;;;;;1999.90;999.90;;;;;;;15.94;100.00;89305.16;4921962;29;20214;-62
2022/08/25 04:36:33;;;;;;;1999.90;999.90;;;;;;;15.93;100.00;89281.72;4921395;29;20214;-62
2022/08/25 04:38:58;;;;;;;1999.90;999.90;;;;;;;15.95;100.00;89276.34;4937612;29;20262;-64
2022/08/25 04:41:24;;;;;;;1999.90;999.90;;;;;;;16.02;100.00;89310.47;4921687;29;20190;-63
2022/08/25 04:43:50;;;;;;;1999.90;999.90;;;;;;;16.10;100.00;89314.50;4922431;29;20201;-62
2022/08/25 04:46:18;;;;;;;1999.90;999.90;;;;;;;16.19;100.00;89359.78;4921950;29;20261;-62
2022/08/25 04:48:44;;;;;;;1999.90;999.90;;;;;;;16.36;100.00;89396.06;4921190;29;20214;-62
2022/08/25 04:51:12;;;;;;;1999.90;999.90;;;;;;;16.57;100.00;89447.72;4921331;29;20217;-63
2022/08/25 04:53:39;;;;;;;1999.90;999.90;;;;;;;16.88;100.00;89535.88;4921713;29;20220;-62
2022/08/25 04:56:07;;;;;;;1999.90;999.90;;;;;;;17.23;100.00;89669.19;4921471;29;20224;-62
2022/08/25 04:58:33;;;;;;;1999.90;999.90;;;;;;;17.61;100.00;89834.56;4921460;29;20292;-62
2022/08/25 05:01:10;;;;;;;1999.90;999.90;;;;;;;18.12;100.00;90058.31;4921627;29;20248;-62
2022/08/25 05:03:36;;;;;;;1999.90;999.90;;;;;;;18.54;100.00;90336.94;4922120;29;20209;-61
2022/08/25 05:06:03;;;;;;;1999.90;999.90;;;;;;;18.74;100.00;90711.53;4921610;29;20249;-63
2022/08/25 05:08:28;;;;;;;1999.90;999.90;;;;;;;19.01;100.00;91022.78;4921285;29;20212;-62
2022/08/25 05:10:55;;;;;;;1999.90;999.90;;;;;;;19.37;100.00;91296.28;4937493;29;20246;-63
2022/08/25 05:13:24;;;;;;;1999.90;999.90;;;;;;;19.64;100.00;91603.84;4921700;29;20202;-62
2022/08/25 05:15:56;;;;;;;1999.90;999.90;;;;;;;19.85;100.00;91829.47;4921439;29;20212;-62
2022/08/25 05:18:23;;;;;;;1999.90;999.90;;;;;;;20.10;100.00;91991.19;4921321;29;20198;-63
2022/08/25 05:20:52;;;;;;;1999.90;999.90;;;;;;;20.36;100.00;92099.03;4921442;29;20206;-62
2022/08/25 05:23:18;;;;;;;1999.90;999.90;;;;;;;20.77;100.00;92245.16;4920781;29;20252;-62
2022/08/25 05:25:44;;;;;;;1999.90;999.90;;;;;;;21.03;100.00;92384.50;4921154;29;20205;-62
2022/08/25 05:28:10;;;;;;;1999.90;999.90;;;;;;;21.24;100.00;92481.63;4937627;29;20198;-63
2022/08/25 05:30:40;;;;;;;1999.90;999.90;;;;;;;21.40;100.00;92606.19;4921511;29;20205;-62
2022/08/25 05:33:05;;;;;;;1999.90;999.90;;;;;;;21.46;100.00;92636.59;4920693;29;20197;-63
2022/08/25 05:35:31;;;;;;;1999.90;999.90;;;;;;;21.55;100.00;92681.31;4921442;29;20244;-63
2022/08/25 05:37:56;;;;;;;1999.90;999.90;;;;;;;22.06;100.00;92710.19;4920570;29;20202;-63
2022/08/25 05:40:23;;;;;;;1999.90;999.90;;;;;;;22.56;100.00;92752.72;4921350;29;20205;-63
2022/08/25 05:42:49;;;;;;;1999.90;999.90;;;;;;;22.89;100.00;92854.84;4921223;29;20285;-62
2022/08/25 05:45:14;;;;;;;1999.90;999.90;;;;;;;23.39;100.00;92946.28;4920472;29;20206;-60
2022/08/25 05:47:39;;;;;;;1999.90;999.90;;;;;;;23.51;100.00;92980.94;4920341;29;20209;-61
2022/08/25 05:50:06;;;;;;;1999.90;999.90;;;;;;;23.42;100.00;93020.44;4936298;29;20205;-61
2022/08/25 05:52:32;;;;;;;1999.90;999.90;;;;;;;23.97;100.00;93016.25;4920238;29;20214;-60
2022/08/25 05:54:57;;;;;;;1999.90;999.90;;;;;;;24.38;100.00;93138.91;4921001;29;20212;-60
2022/08/25 05:57:23;;;;;;;1999.90;999.90;;;;;;;24.55;100.00;93167.16;4920621;29;20210;-60
2022/08/25 05:59:48;;;;;;;1999.90;999.90;;;;;;;24.88;100.00;93169.78;4920886;29;20205;-60
2022/08/25 06:04:58;;;;;;;1999.90;999.90;;;;;;;24.96;100.00;93214.53;4937398;29;20273;-62
2022/08/25 06:07:24;;;;;;;1999.90;999.90;;;;;;;25.10;100.00;93459.06;4920545;29;20209;-62
2022/08/25 06:09:49;;;;;;;1999.90;999.90;;;;;;;25.08;100.00;93444.84;4920722;29;20225;-59
2022/08/25 06:12:16;;;;;;;1999.90;999.90;;;;;;;25.03;100.00;93188.69;4920038;29;20229;-62
2022/08/25 06:14:42;;;;;;;1999.90;999.90;;;;;;;25.42;100.00;92987.06;4920368;29;20209;-60
2022/08/25 06:17:08;;;;;;;1999.90;999.90;;;;;;;25.80;100.00;92953.50;4920664;29;20201;-60
2022/08/25 06:19:33;;;;;;;1999.90;999.90;;;;;;;26.42;100.00;93119.53;4936036;29;20198;-60
2022/08/25 06:21:59;;;;;;;1999.90;999.90;;;;;;;26.54;100.00;93181.47;4920444;29;20216;-61
2022/08/25 06:24:26;;;;;;;1999.90;999.90;;;;;;;26.90;100.00;93456.69;4936252;29;20198;-61
2022/08/25 06:26:52;;;;;;;1999.90;999.90;;;;;;;26.93;100.00;93574.03;4919819;29;20262;-60
2022/08/25 06:29:18;;;;;;;1999.90;999.90;;;;;;;27.56;100.00;93884.59;4919990;29;20194;-60
2022/08/25 06:31:45;;;;;;;1999.90;999.90;;;;;;;27.80;100.00;94189.41;4919993;29;20182;-61
2022/08/25 06:34:11;;;;;;;1999.90;999.90;;;;;;;27.67;100.00;94369.81;4920624;29;20292;-60
2022/08/25 06:36:37;;;;;;;1999.90;999.90;;;;;;;28.04;100.00;94529.69;4920125;29;20231;-61
2022/08/25 06:39:03;;;;;;;1999.90;999.90;;;;;;;28.27;100.00;94737.94;4919828;29;20210;-61
2022/08/25 06:41:29;;;;;;;1999.90;999.90;;;;;;;29.05;100.00;94900.56;4919878;29;20200;-61
2022/08/25 06:43:54;;;;;;;1999.90;999.90;;;;;;;28.84;100.00;94972.72;4935551;29;20273;-60
2022/08/25 06:46:25;;;;;;;1999.90;999.90;;;;;;;29.12;100.00;95006.84;4919407;29;20201;-60
2022/08/25 06:48:51;;;;;;;1999.90;999.90;;;;;;;29.80;100.00;95087.72;4935820;29;20205;-59
2022/08/25 06:51:18;;;;;;;1999.90;999.90;;;;;;;29.99;100.00;95122.22;4935489;29;20194;-60
2022/08/25 06:53:48;;;;;;;1999.90;999.90;;;;;;;30.47;97.13;95178.31;4920060;29;20209;-61
2022/08/25 06:56:14;;;;;;;1999.90;999.90;;;;;;;30.07;96.65;95197.16;4919758;29;20229;-59
2022/08/25 06:58:41;;;;;;;1999.90;999.90;;;;;;;30.39;95.55;95195.13;4919658;29;20218;-60
2022/08/25 07:01:10;;;;;;;1999.90;999.90;;;;;;;30.86;87.74;95232.00;4919809;29;20194;-60
2022/08/25 07:03:39;;;;;;;1999.90;999.90;;;;;;;31.08;88.30;95225.94;4935854;29;20245;-60
2022/08/25 07:06:05;;;;;;;1999.90;999.90;;;;;;;31.41;83.10;95247.91;4919971;29;20209;-60
2022/08/25 07:08:30;;;;;;;1999.90;999.90;;;;;;;31.52;82.40;95244.88;4935592;29;20193;-59
2022/08/25 07:10:56;;;;;;;1999.90;999.90;;;;;;;31.65;79.74;95264.63;4919930;29;20249;-59
2022/08/25 07:13:22;;;;;;;1999.90;999.90;;;;;;;31.71;78.98;95253.22;4919622;29;20193;-61
2022/08/25 07:15:53;;;;;;;1999.90;999.90;;;;;;;32.60;72.70;95283.88;4919526;29;20202;-59
2022/08/25 07:18:18;;;;;;;1999.90;999.90;;;;;;;33.63;68.96;95302.31;4919553;29;20202;-59
2022/08/25 07:20:44;;;;;;;1999.90;999.90;;;;;;;33.21;71.04;95288.78;4919729;29;20269;-60
2022/08/25 07:23:10;;;;;;;1999.90;999.90;;;;;;;32.43;70.81;95297.66;4919664;29;20213;-59
2022/08/25 07:25:35;;;;;;;1999.90;999.90;;;;;;;31.50;78.42;95278.53;4919874;29;20202;-59
2022/08/25 07:28:01;;;;;;;1999.90;999.90;;;;;;;30.91;81.56;95273.47;4919111;29;20190;-60
2022/08/25 07:30:27;;;;;;;1999.90;999.90;;;;;;;29.90;91.41;95243.78;4935441;29;20197;-60
2022/08/25 07:32:52;;;;;;;1999.90;999.90;;;;;;;29.70;94.03;95227.41;4919798;29;20213;-59
2022/08/25 07:35:19;;;;;;;1999.90;999.90;;;;;;;30.43;88.11;95251.19;4919545;29;20277;-59
2022/08/25 07:37:49;;;;;;;1999.90;999.90;;;;;;;31.28;80.70;95278.22;4919560;29;20202;-59
2022/08/25 07:40:24;;;;;;;1999.90;999.90;;;;;;;29.92;90.00;95244.75;4919273;29;20233;-59
2022/08/25 07:42:51;;;;;;;1999.90;999.90;;;;;;;30.80;86.40;95251.88;4918921;29;20251;-60
2022/08/25 07:45:17;;;;;;;1999.90;999.90;;;;;;;29.45;89.49;95254.84;4919417;29;20202;-58
2022/08/25 07:47:43;;;;;;;1999.90;999.90;;;;;;;30.18;89.16;95255.41;4919166;29;20310;-59
2022/08/25 07:50:11;;;;;;;1999.90;999.90;;;;;;;31.67;81.11;95287.44;4919744;29;20269;-59
2022/08/25 07:52:39;;;;;;;1999.90;999.90;;;;;;;31.31;81.14;95288.44;4919096;29;20205;-60
2022/08/25 07:55:06;;;;;;;1999.90;999.90;;;;;;;30.74;85.84;95275.84;4918710;29;20321;-59
2022/08/25 07:57:32;;;;;;;1999.90;999.90;;;;;;;31.74;80.74;95291.66;4920587;29;20213;-59
2022/08/25 07:59:58;;;;;;;1999.90;999.90;;;;;;;33.25;69.38;95323.91;4922908;29;20201;-60
2022/08/25 08:02:24;;;;;;;1999.90;999.90;;;;;;;32.29;74.78;95330.84;4922466;29;20218;-59
2022/08/25 08:04:52;;;;;;;1999.90;999.90;;;;;;;32.08;75.90;95337.75;4922159;29;20210;-59
2022/08/25 08:07:21;;;;;;;1999.90;999.90;;;;;;;31.11;82.71;95323.69;4922036;29;20198;-59
2022/08/25 08:09:46;;;;;;;1999.90;999.90;;;;;;;32.95;73.43;95351.97;4922255;29;20208;-59
2022/08/25 08:12:12;;;;;;;1999.90;999.90;;;;;;;33.78;68.62;95353.44;4922064;29;20202;-59
2022/08/25 08:14:38;;;;;;;1999.90;999.90;;;;;;;33.75;67.14;95359.44;4922212;29;20277;-59
2022/08/25 08:17:08;;;;;;;1999.90;999.90;;;;;;;33.12;71.77;95358.00;4938034;29;20201;-59
2022/08/25 08:19:34;;;;;;;1999.90;999.90;;;;;;;34.07;64.82;95361.91;4922034;29;20198;-62
2022/08/25 08:22:02;;;;;;;1999.90;999.90;;;;;;;33.88;66.47;95355.75;4922278;29;20298;-60
2022/08/25 08:24:38;;;;;;;1999.90;999.90;;;;;;;32.37;75.03;95360.00;4922577;29;20201;-59
2022/08/25 08:27:06;;;;;;;1999.90;999.90;;;;;;;33.22;70.59;95361.84;4922135;29;20208;-59
2022/08/25 08:29:31;;;;;;;1999.90;999.90;;;;;;;34.04;66.85;95346.03;4937902;29;20202;-59
2022/08/25 08:31:56;;;;;;;1999.90;999.90;;;;;;;33.66;67.16;95351.47;4938125;29;20194;-61
2022/08/25 08:34:22;;;;;;;1999.90;999.90;;;;;;;33.12;68.40;95354.41;4921913;29;20201;-59
2022/08/25 08:36:48;;;;;;;1999.90;999.90;;;;;;;33.08;67.79;95359.66;4937774;29;20198;-59
2022/08/25 08:39:14;;;;;;;1999.90;999.90;;;;;;;33.26;69.31;95359.44;4921731;29;20285;-59
2022/08/25 08:44:42;;;;;;;1999.90;999.90;;;;;;;32.14;77.02;95344.81;4938638;29;20225;-59
2022/08/25 08:47:39;;;;;;;1999.90;999.90;;;;;;;31.83;76.29;95345.69;4937809;29;20237;-59
2022/08/25 08:50:35;;;;;;;1999.90;999.90;;;;;;;34.12;67.62;95338.31;4937793;29;20289;-59
2022/08/25 08:53:26;;;;;;;1999.90;999.90;;;;;;;32.79;69.90;95338.97;4937306;29;20300;-60
2022/08/25 08:55:56;;;;;;;1999.90;999.90;;;;;;;31.77;75.98;95342.22;4937452;29;20173;-59
2022/08/25 08:58:23;;;;;;;1999.90;999.90;;;;;;;30.73;87.69;95330.72;4921750;29;20268;-58
2022/08/25 09:00:53;;;;;;;1999.90;999.90;;;;;;;31.79;78.48;95333.97;4937259;29;20197;-58
2022/08/25 09:03:38;;;;;;;1999.90;999.90;;;;;;;33.29;70.64;95323.59;4921778;29;20229;-59
2022/08/25 09:06:43;;;;;;;1999.90;999.90;;;;;;;30.20;91.15;95317.66;4937339;29;20193;-58
2022/08/25 09:09:13;;;;;;;1999.90;999.90;;;;;;;30.28;87.45;95313.72;4936066;29;20268;-58
2022/08/25 09:12:03;;;;;;;1999.90;999.90;;;;;;;29.87;93.90;95306.81;4921665;29;20186;-58
2022/08/25 09:14:32;;;;;;;1999.90;999.90;;;;;;;31.27;85.26;95300.03;4937385;29;20210;-59
2022/08/25 09:17:05;;;;;;;1999.90;999.90;;;;;;;31.35;83.07;95312.22;4937278;29;20202;-59
2022/08/25 09:19:54;;;;;;;1999.90;999.90;;;;;;;30.76;88.90;95307.06;4937553;29;20211;-59
2022/08/25 09:22:56;;;;;;;1999.90;999.90;;;;;;;32.50;77.83;95308.28;4936979;29;20225;-59
2022/08/25 09:25:40;;;;;;;1999.90;999.90;;;;;;;32.63;75.68;95320.31;4937026;29;20237;-59
2022/08/25 09:28:12;;;;;;;1999.90;999.90;;;;;;;31.43;83.05;95324.41;4937346;29;20204;-58
2022/08/25 09:30:58;;;;;;;1999.90;999.90;;;;;;;29.42;96.84;95305.81;4936935;29;20293;-59
2022/08/25 09:33:26;;;;;;;1999.90;999.90;;;;;;;32.45;80.27;95309.94;4936897;29;20194;-59
2022/08/25 09:35:54;;;;;;;1999.90;999.90;;;;;;;32.41;79.76;95309.50;4921050;29;20233;-58
2022/08/25 09:38:20;;;;;;;1999.90;999.90;;;;;;;32.39;77.04;95314.97;4920875;29;20284;-59
2022/08/25 09:40:49;;;;;;;1999.90;999.90;;;;;;;31.62;80.81;95322.22;4921277;29;20286;-59
2022/08/25 09:43:36;;;;;;;1999.90;999.90;;;;;;;32.25;77.81;95310.63;4921344;29;20218;-58
2022/08/25 09:46:04;;;;;;;1999.90;999.90;;;;;;;31.17;83.54;95310.97;4921154;29;20206;-61
2022/08/25 09:48:38;;;;;;;1999.90;999.90;;;;;;;32.16;78.32;95315.97;4936245;29;20301;-61
2022/08/25 09:51:31;;;;;;;1999.90;999.90;;;;;;;29.77;95.38;95306.44;4936988;29;20193;-61
2022/08/25 09:54:04;;;;;;;1999.90;999.90;;;;;;;31.45;86.45;95304.84;4920809;29;20212;-60
2022/08/25 09:56:32;;;;;;;1999.90;999.90;;;;;;;33.21;73.06;95305.78;4936696;29;20202;-60
2022/08/25 09:59:33;;;;;;;1999.90;999.90;;;;;;;33.03;73.26;95301.09;4920906;29;20201;-60
2022/08/25 10:02:01;;;;;;;1999.90;999.90;;;;;;;31.73;79.23;95298.63;4906058;29;20222;-60
2022/08/25 10:04:32;;;;;;;1999.90;999.90;;;;;;;31.47;80.16;95305.06;4920431;29;20281;-61
2022/08/25 10:07:01;;;;;;;1999.90;999.90;;;;;;;30.86;86.72;95285.63;4936514;29;20198;-59
2022/08/25 10:09:38;;;;;;;1999.90;999.90;;;;;;;31.05;83.70;95294.78;4920301;29;20202;-59
2022/08/25 10:12:19;;;;;;;1999.90;999.90;;;;;;;31.51;78.93;95307.56;4920478;29;20201;-60
2022/08/25 10:14:45;;;;;;;1999.90;999.90;;;;;;;31.21;83.89;95282.44;4920644;29;20210;-59
2022/08/25 10:17:37;;;;;;;1999.90;999.90;;;;;;;33.67;71.80;95280.03;4920257;29;20208;-60
2022/08/25 10:20:08;;;;;;;1999.90;999.90;;;;;;;31.52;80.76;95290.06;4932410;29;20308;-60
2022/08/25 10:22:34;;;;;;;1999.90;999.90;;;;;;;32.34;77.31;95281.16;4935818;29;20214;-59
2022/08/25 10:25:01;;;;;;;1999.90;999.90;;;;;;;32.45;77.21;95284.47;4935888;29;20206;-58
2022/08/25 10:27:59;;;;;;;1999.90;999.90;;;;;;;31.71;79.50;95270.91;4920113;29;20221;-60
2022/08/25 10:30:36;;;;;;;1999.90;999.90;;;;;;;30.48;86.77;95284.19;4935923;29;20217;-60
2022/08/25 10:33:22;;;;;;;1999.90;999.90;;;;;;;30.49;90.53;95265.97;4936050;29;20300;-61
2022/08/25 10:36:01;;;;;;;1999.90;999.90;;;;;;;31.27;82.23;95266.16;4936105;29;20198;-59
2022/08/25 10:38:48;;;;;;;1999.90;999.90;;;;;;;31.01;87.34;95260.47;4920110;29;20198;-59
2022/08/25 10:41:35;;;;;;;1999.90;999.90;;;;;;;30.97;84.84;95260.03;4935922;29;20289;-60
2022/08/25 10:47:22;;;;;;;1999.90;999.90;;;;;;;31.56;79.64;95269.94;4936840;29;20307;-58
2022/08/25 10:49:54;;;;;;;1999.90;999.90;;;;;;;31.59;81.55;95266.03;4935546;29;20209;-59
2022/08/25 10:52:35;;;;;;;1999.90;999.90;;;;;;;33.19;72.72;95252.50;4935874;29;20226;-60
2022/08/25 10:55:07;;;;;;;1999.90;999.90;;;;;;;32.56;73.19;95253.06;4919708;29;20201;-59
2022/08/25 10:57:52;;;;;;;1999.90;999.90;;;;;;;32.45;69.48;95270.31;4936140;29;20194;-60
2022/08/25 11:00:21;;;;;;;1999.90;999.90;;;;;;;30.71;74.38;95268.44;4936011;29;20198;-60
2022/08/25 11:03:05;;;;;;;1999.90;999.90;;;;;;;29.72;82.13;95250.19;4919991;29;20214;-59
2022/08/25 11:05:38;;;;;;;1999.90;999.90;;;;;;;30.61;80.14;95253.97;4935956;29;20229;-59
2022/08/25 11:08:23;;;;;;;1999.90;999.90;;;;;;;30.54;82.02;95251.00;4935433;29;20202;-59
2022/08/25 11:10:56;;;;;;;1999.90;999.90;;;;;;;30.57;82.97;95244.28;4935374;29;20190;-59